createdAt,value
2022-08-28T00:01:56.384Z,99713.20
2022-08-28T00:04:30.606Z,99712.20
2022-08-28T00:07:05.395Z,99709.20
2022-08-28T00:09:39.455Z,99710.40
2022-08-28T00:12:14.656Z,99712.80
2022-08-28T00:14:48.550Z,99717.80
2022-08-28T00:17:22.489Z,99715.80
2022-08-28T00:19:56.629Z,99714.00
2022-08-28T00:22:30.722Z,99712.20
2022-08-28T00:25:04.805Z,99714.80
2022-08-28T00:27:55.285Z,99710.80
2022-08-28T00:30:33.654Z,99716.60
2022-08-28T00:33:13.262Z,99714.60
2022-08-28T00:35:48.079Z,99709.00
2022-08-28T00:38:25.681Z,99713.60
2022-08-28T00:41:03.992Z,99719.80
2022-08-28T00:43:44.071Z,99713.80
2022-08-28T00:46:22.688Z,99710.20
2022-08-28T00:48:57.055Z,99709.20
2022-08-28T00:51:50.052Z,99711.80
2022-08-28T00:54:24.866Z,99712.80
2022-08-28T00:57:00.587Z,99705.80
2022-08-28T00:59:36.471Z,99706.60
2022-08-28T01:02:11.643Z,99711.20
2022-08-28T01:04:46.493Z,99708.20
2022-08-28T01:07:23.345Z,99709.00
2022-08-28T01:09:59.485Z,99708.20
2022-08-28T01:12:36.870Z,99710.80
2022-08-28T01:15:17.526Z,99713.00
2022-08-28T01:17:56.557Z,99715.60
2022-08-28T01:20:36.426Z,99715.00
2022-08-28T01:23:21.568Z,99718.00
2022-08-28T01:25:55.537Z,99717.80
2022-08-28T01:28:29.683Z,99718.80
2022-08-28T01:31:05.744Z,99714.60
2022-08-28T01:33:42.295Z,99714.40
2022-08-28T01:36:18.468Z,99713.60
2022-08-28T01:39:01.915Z,99716.00
2022-08-28T01:41:35.792Z,99719.00
2022-08-28T01:44:09.886Z,99719.80
2022-08-28T01:46:45.421Z,99714.20
2022-08-28T01:49:20.050Z,99712.20
2022-08-28T01:51:54.746Z,99709.40
2022-08-28T01:54:29.317Z,99709.60
2022-08-28T01:57:03.850Z,99706.40
2022-08-28T01:59:37.899Z,99704.80
2022-08-28T02:02:11.920Z,99705.40
2022-08-28T02:04:48.178Z,99710.00
2022-08-28T02:07:22.652Z,99706.60
2022-08-28T02:09:56.595Z,99703.60
2022-08-28T02:12:31.998Z,99702.40
2022-08-28T02:15:07.551Z,99701.20
2022-08-28T02:17:41.540Z,99701.40
2022-08-28T02:20:17.028Z,99707.40
2022-08-28T02:22:51.946Z,99699.00
2022-08-28T02:25:27.278Z,99699.00
2022-08-28T02:28:01.572Z,99701.80
2022-08-28T02:30:35.511Z,99703.00
2022-08-28T02:33:09.542Z,99702.40
2022-08-28T02:35:44.673Z,99700.00
2022-08-28T02:38:18.921Z,99704.20
2022-08-28T02:40:52.911Z,99711.80
2022-08-28T02:43:26.915Z,99708.00
2022-08-28T02:46:00.867Z,99707.20
2022-08-28T02:48:38.162Z,99710.80
2022-08-28T02:51:15.795Z,99707.20
2022-08-28T02:53:52.234Z,99710.60
2022-08-28T02:56:26.236Z,99713.00
2022-08-28T02:59:00.382Z,99709.40
2022-08-28T03:01:34.983Z,99708.00
2022-08-28T03:04:09.813Z,99707.40
2022-08-28T03:06:44.032Z,99704.40
2022-08-28T03:09:17.954Z,99705.20
2022-08-28T03:11:54.028Z,99700.80
2022-08-28T03:14:28.086Z,99701.40
2022-08-28T03:17:02.625Z,99702.60
2022-08-28T03:19:37.105Z,99709.60
2022-08-28T03:22:10.887Z,99714.00
2022-08-28T03:24:45.122Z,99707.40
2022-08-28T03:27:19.063Z,99709.40
2022-08-28T03:29:52.833Z,99707.00
2022-08-28T03:32:26.907Z,99711.80
2022-08-28T03:35:04.088Z,99712.40
2022-08-28T03:37:38.195Z,99711.40
2022-08-28T03:40:14.961Z,99711.80
2022-08-28T03:42:53.295Z,99709.80
2022-08-28T03:45:27.514Z,99710.60
2022-08-28T03:48:01.402Z,99712.20
2022-08-28T03:50:36.010Z,99708.60
2022-08-28T03:53:09.830Z,99711.60
2022-08-28T03:55:44.675Z,99715.60
2022-08-28T03:58:19.494Z,99713.20
2022-08-28T04:00:54.426Z,99714.40
2022-08-28T04:03:29.366Z,99716.60
2022-08-28T04:06:04.119Z,99714.60
2022-08-28T04:08:37.952Z,99720.40
2022-08-28T04:11:12.525Z,99724.20
2022-08-28T04:13:46.360Z,99726.40
2022-08-28T04:16:20.373Z,99730.40
2022-08-28T04:18:54.583Z,99728.80
2022-08-28T04:21:29.024Z,99733.80
2022-08-28T04:24:04.951Z,99737.80
2022-08-28T04:26:41.604Z,99736.40
2022-08-28T04:29:16.154Z,99739.00
2022-08-28T04:31:50.592Z,99737.60
2022-08-28T04:34:24.481Z,99738.20
2022-08-28T04:36:59.264Z,99739.80
2022-08-28T04:39:33.108Z,99743.60
2022-08-28T04:42:07.659Z,99745.20
2022-08-28T04:44:41.907Z,99747.60
2022-08-28T04:47:15.784Z,99750.00
2022-08-28T04:49:49.944Z,99750.20
2022-08-28T04:52:24.496Z,99754.60
2022-08-28T04:54:58.398Z,99755.40
2022-08-28T04:57:36.214Z,99754.20
2022-08-28T05:00:13.840Z,99756.20
2022-08-28T05:02:47.608Z,99757.00
2022-08-28T05:05:21.816Z,99761.40
2022-08-28T05:07:57.414Z,99759.80
2022-08-28T05:10:31.429Z,99755.60
2022-08-28T05:13:05.500Z,99754.20
2022-08-28T05:15:44.649Z,99754.80
2022-08-28T05:18:22.369Z,99751.60
2022-08-28T05:20:56.413Z,99745.80
2022-08-28T05:23:30.638Z,99753.40
2022-08-28T05:26:04.893Z,99754.00
2022-08-28T05:28:38.714Z,99755.40
2022-08-28T05:31:18.849Z,99756.20
2022-08-28T05:33:54.070Z,99762.80
2022-08-28T05:36:32.606Z,99760.20
2022-08-28T05:39:10.979Z,99762.80
2022-08-28T05:41:47.328Z,99767.80
2022-08-28T05:44:24.372Z,99769.80
2022-08-28T05:46:58.842Z,99770.00
2022-08-28T05:49:33.171Z,99772.00
2022-08-28T05:52:07.462Z,99777.40
2022-08-28T05:54:43.474Z,99777.80
2022-08-28T05:57:17.304Z,99779.60
2022-08-28T05:59:51.477Z,99776.40
2022-08-28T06:02:25.388Z,99775.60
2022-08-28T06:04:59.907Z,99777.20
2022-08-28T06:07:34.880Z,99775.40
2022-08-28T06:10:10.988Z,99772.00
2022-08-28T06:12:44.647Z,99772.60
2022-08-28T06:15:19.033Z,99775.20
2022-08-28T06:17:53.653Z,99778.40
2022-08-28T06:20:27.454Z,99777.20
2022-08-28T06:23:01.201Z,99779.80
2022-08-28T06:25:40.175Z,99783.40
2022-08-28T06:28:15.263Z,99782.60
2022-08-28T06:31:08.961Z,99784.20
2022-08-28T06:33:43.033Z,99784.00
2022-08-28T06:36:17.379Z,99780.00
2022-08-28T06:38:51.530Z,99776.60
2022-08-28T06:41:25.706Z,99776.20
2022-08-28T06:43:59.823Z,99782.20
2022-08-28T06:46:34.842Z,99783.80
2022-08-28T06:49:12.609Z,99785.40
2022-08-28T06:51:46.629Z,99787.60
2022-08-28T06:54:23.291Z,99787.00
2022-08-28T06:56:57.827Z,99786.80
2022-08-28T06:59:31.991Z,99791.40
2022-08-28T07:02:07.746Z,99793.80
2022-08-28T07:04:41.849Z,99796.00
2022-08-28T07:07:32.468Z,99792.60
2022-08-28T07:10:09.835Z,99794.00
2022-08-28T07:12:43.830Z,99792.60
2022-08-28T07:15:18.462Z,99795.60
2022-08-28T07:17:53.115Z,99796.60
2022-08-28T07:20:27.166Z,99793.40
2022-08-28T07:23:01.125Z,99793.80
2022-08-28T07:25:35.237Z,99792.00
2022-08-28T07:28:09.716Z,99791.20
2022-08-28T07:30:44.160Z,99794.80
2022-08-28T07:33:18.468Z,99798.00
2022-08-28T07:35:52.808Z,99801.60
2022-08-28T07:38:27.574Z,99803.60
2022-08-28T07:41:02.357Z,99805.60
2022-08-28T07:43:53.880Z,99799.60
2022-08-28T07:46:27.859Z,99802.00
2022-08-28T07:49:02.379Z,99804.40
2022-08-28T07:51:36.928Z,99807.00
2022-08-28T07:54:15.540Z,99811.60
2022-08-28T07:56:53.771Z,99819.20
2022-08-28T07:59:36.517Z,99824.80
2022-08-28T08:02:12.466Z,99826.20
2022-08-28T08:04:46.487Z,99828.20
2022-08-28T08:07:20.694Z,99826.20
2022-08-28T08:09:54.646Z,99826.00
2022-08-28T08:12:34.648Z,99827.00
2022-08-28T08:15:10.703Z,99826.20
2022-08-28T08:17:46.214Z,99824.80
2022-08-28T08:20:20.822Z,99831.00
2022-08-28T08:22:54.888Z,99826.60
2022-08-28T08:25:29.181Z,99829.80
2022-08-28T08:28:08.668Z,99831.40
2022-08-28T08:30:43.722Z,99833.20
2022-08-28T08:33:17.713Z,99833.20
2022-08-28T08:35:51.543Z,99835.60
2022-08-28T08:38:26.269Z,99839.80
2022-08-28T08:41:02.639Z,99840.60
2022-08-28T08:43:57.355Z,99839.80
2022-08-28T08:46:40.035Z,99850.40
2022-08-28T08:49:22.601Z,99847.60
2022-08-28T08:52:15.549Z,99840.80
2022-08-28T08:55:07.369Z,99844.00
2022-08-28T08:57:43.796Z,99840.40
2022-08-28T09:00:21.142Z,99841.80
2022-08-28T09:03:05.893Z,99840.60
2022-08-28T09:05:56.287Z,99841.80
2022-08-28T09:08:40.584Z,99843.00
2022-08-28T09:11:31.708Z,99845.60
2022-08-28T09:14:20.617Z,99853.40
2022-08-28T09:17:02.173Z,99855.40
2022-08-28T09:19:36.409Z,99855.00
2022-08-28T09:22:10.324Z,99851.60
2022-08-28T09:24:45.326Z,99850.60
2022-08-28T09:27:30.729Z,99853.60
2022-08-28T09:30:08.597Z,99852.80
2022-08-28T09:32:45.435Z,99855.80
2022-08-28T09:35:29.128Z,99854.40
2022-08-28T09:38:23.470Z,99855.80
2022-08-28T09:41:31.745Z,99851.20
2022-08-28T09:44:05.897Z,99850.00
2022-08-28T09:46:45.056Z,99841.00
2022-08-28T09:49:26.397Z,99842.00
2022-08-28T09:52:20.670Z,99838.00
2022-08-28T09:54:57.864Z,99836.20
2022-08-28T09:57:32.306Z,99836.40
2022-08-28T10:00:07.900Z,99838.00
2022-08-28T10:02:58.252Z,99831.20
2022-08-28T10:05:43.520Z,99834.00
2022-08-28T10:08:35.657Z,99837.60
2022-08-28T10:11:25.574Z,99840.00
2022-08-28T10:14:13.155Z,99841.20
2022-08-28T10:17:00.435Z,99844.80
2022-08-28T10:19:47.974Z,99846.60
2022-08-28T10:22:37.563Z,99850.40
2022-08-28T10:25:30.662Z,99847.40
2022-08-28T10:28:31.835Z,99849.40
2022-08-28T10:31:16.950Z,99847.60
2022-08-28T10:34:14.533Z,99846.80
2022-08-28T10:37:00.893Z,99850.80
2022-08-28T10:39:49.035Z,99850.20
2022-08-28T10:43:19.758Z,99852.60
2022-08-28T10:45:55.117Z,99854.00
2022-08-28T10:48:36.769Z,99855.80
2022-08-28T10:51:30.140Z,99861.00
2022-08-28T10:54:27.321Z,99858.00
2022-08-28T10:57:15.959Z,99855.60
2022-08-28T10:59:54.458Z,99850.80
2022-08-28T11:02:32.259Z,99849.40
2022-08-28T11:05:07.504Z,99850.60
2022-08-28T11:07:48.261Z,99847.60
2022-08-28T11:10:46.249Z,99846.80
2022-08-28T11:13:50.469Z,99842.20
2022-08-28T11:16:38.110Z,99842.00
2022-08-28T11:19:52.463Z,99847.00
2022-08-28T11:22:31.555Z,99848.20
2022-08-28T11:25:17.978Z,99853.80
2022-08-28T11:28:22.592Z,99852.40
2022-08-28T11:31:35.972Z,99856.20
2022-08-28T11:34:30.618Z,99861.00
2022-08-28T11:37:06.644Z,99864.00
2022-08-28T11:39:40.652Z,99864.00
2022-08-28T11:42:41.884Z,99865.60
2022-08-28T11:45:46.760Z,99866.40
2022-08-28T11:48:52.323Z,99861.40
2022-08-28T11:51:49.594Z,99865.40
2022-08-28T11:54:47.176Z,99860.00
2022-08-28T11:57:26.775Z,99861.00
2022-08-28T12:00:13.147Z,99865.60
2022-08-28T12:02:57.310Z,99864.80
2022-08-28T12:05:57.747Z,99865.60
2022-08-28T12:09:15.489Z,99871.60
2022-08-28T12:12:09.593Z,99871.00
2022-08-28T12:15:09.790Z,99873.60
2022-08-28T12:18:01.527Z,99870.00
2022-08-28T12:21:00.113Z,99881.40
2022-08-28T12:23:43.375Z,99883.40
2022-08-28T12:26:26.551Z,99888.40
2022-08-28T12:29:04.018Z,99895.40
2022-08-28T12:32:15.076Z,99896.60
2022-08-28T12:35:04.609Z,99895.00
2022-08-28T12:37:51.884Z,99902.20
2022-08-28T12:40:33.389Z,99903.20
2022-08-28T12:43:11.719Z,99904.80
2022-08-28T12:45:55.667Z,99903.00
2022-08-28T12:48:33.469Z,99903.20
2022-08-28T12:51:13.901Z,99905.20
2022-08-28T12:53:52.129Z,99903.80
2022-08-28T12:56:30.307Z,99899.80
2022-08-28T12:59:33.900Z,99904.20
2022-08-28T13:02:11.434Z,99907.40
2022-08-28T13:04:55.624Z,99908.40
2022-08-28T13:07:33.397Z,99911.40
2022-08-28T13:10:22.306Z,99911.00
2022-08-28T13:13:15.489Z,99915.20
2022-08-28T13:16:01.595Z,99922.60
2022-08-28T13:19:15.504Z,99925.00
2022-08-28T13:22:02.221Z,99931.80
2022-08-28T13:24:49.038Z,99934.60
2022-08-28T13:27:26.590Z,99938.20
2022-08-28T13:30:08.658Z,99938.20
2022-08-28T13:32:55.879Z,99933.20
2022-08-28T13:35:42.929Z,99938.40
2022-08-28T13:38:20.103Z,99939.00
2022-08-28T13:40:59.456Z,99935.60
2022-08-28T13:43:48.225Z,99936.20
2022-08-28T13:46:22.383Z,99940.20
2022-08-28T13:48:57.168Z,99940.60
2022-08-28T13:51:31.874Z,99945.20
2022-08-28T13:54:08.942Z,99943.60
2022-08-28T13:56:45.419Z,99950.60
2022-08-28T13:59:19.943Z,99942.80
2022-08-28T14:02:16.245Z,99948.20
2022-08-28T14:04:50.383Z,99946.00
2022-08-28T14:07:24.763Z,99948.80
2022-08-28T14:09:58.979Z,99950.80
2022-08-28T14:12:34.593Z,99954.20
2022-08-28T14:15:10.366Z,99959.20
2022-08-28T14:17:44.822Z,99957.20
2022-08-28T14:20:19.009Z,99964.40
2022-08-28T14:22:53.401Z,99967.00
2022-08-28T14:25:27.404Z,99970.20
2022-08-28T14:28:01.442Z,99968.40
2022-08-28T14:30:35.493Z,99975.40
2022-08-28T14:33:09.401Z,99979.80
2022-08-28T14:35:48.894Z,99980.80
2022-08-28T14:38:22.820Z,99978.60
2022-08-28T14:40:56.883Z,99981.60
2022-08-28T14:43:32.038Z,99990.20
2022-08-28T14:46:10.983Z,99983.00
2022-08-28T14:48:45.389Z,99985.40
2022-08-28T14:51:20.647Z,99983.40
2022-08-28T14:53:55.088Z,99987.80
2022-08-28T14:56:31.786Z,99982.40
2022-08-28T14:59:12.275Z,99986.00
2022-08-28T15:01:51.247Z,99988.20
2022-08-28T15:04:29.326Z,99986.20
2022-08-28T15:07:08.504Z,99982.60
2022-08-28T15:09:45.491Z,99981.40
2022-08-28T15:12:19.956Z,99978.60
2022-08-28T15:14:57.386Z,99975.80
2022-08-28T15:17:33.690Z,99973.20
2022-08-28T15:20:11.592Z,99972.40
2022-08-28T15:22:45.536Z,99975.60
2022-08-28T15:25:19.530Z,99969.40
2022-08-28T15:27:53.461Z,99966.80
2022-08-28T15:30:27.514Z,99964.40
2022-08-28T15:33:02.020Z,99966.40
2022-08-28T15:35:37.238Z,99969.00
2022-08-28T15:38:11.444Z,99968.60
2022-08-28T15:41:03.151Z,99964.80
2022-08-28T15:43:37.726Z,99966.40
2022-08-28T15:46:16.649Z,99963.40
2022-08-28T15:48:54.470Z,99962.60
2022-08-28T15:51:29.786Z,99965.20
2022-08-28T15:54:03.965Z,99969.80
2022-08-28T15:56:40.091Z,99974.60
2022-08-28T15:59:15.176Z,99984.00
2022-08-28T16:01:49.526Z,99988.80
2022-08-28T16:04:23.783Z,99989.60
2022-08-28T16:07:00.611Z,99991.00
2022-08-28T16:09:34.802Z,99997.20
2022-08-28T16:12:09.481Z,99999.80
2022-08-28T16:14:43.604Z,99995.40
2022-08-28T16:17:17.574Z,99992.60
2022-08-28T16:19:51.850Z,99993.60
2022-08-28T16:22:25.968Z,99996.00
2022-08-28T16:25:00.045Z,99994.60
2022-08-28T16:27:34.496Z,99997.60
2022-08-28T16:30:16.080Z,99995.00
2022-08-28T16:32:51.105Z,100001.00
2022-08-28T16:35:25.235Z,100005.00
2022-08-28T16:37:59.506Z,100005.20
2022-08-28T16:40:34.711Z,100008.60
2022-08-28T16:43:11.841Z,100010.40
2022-08-28T16:45:51.085Z,100009.40
2022-08-28T16:48:27.904Z,100009.60
2022-08-28T16:51:02.706Z,100015.40
2022-08-28T16:53:45.019Z,100011.80
2022-08-28T16:56:20.882Z,100017.00
2022-08-28T16:58:56.080Z,100020.40
2022-08-28T17:01:34.595Z,100016.20
2022-08-28T17:04:15.290Z,100017.20
2022-08-28T17:06:52.390Z,100021.80
2022-08-28T17:09:28.152Z,100022.60
2022-08-28T17:12:03.925Z,100023.80
2022-08-28T17:14:39.007Z,100029.80
2022-08-28T17:17:13.805Z,100031.00
2022-08-28T17:19:47.733Z,100034.00
2022-08-28T17:22:33.705Z,100030.60
2022-08-28T17:25:14.279Z,100033.20
2022-08-28T17:27:48.232Z,100039.80
2022-08-28T17:30:23.703Z,100041.40
2022-08-28T17:32:59.395Z,100042.60
2022-08-28T17:35:33.979Z,100039.60
2022-08-28T17:38:16.745Z,100044.60
2022-08-28T17:40:51.066Z,100042.40
2022-08-28T17:43:25.382Z,100051.20
2022-08-28T17:45:59.513Z,100052.00
2022-08-28T17:48:35.636Z,100051.00
2022-08-28T17:51:10.436Z,100051.80
2022-08-28T17:53:45.009Z,100053.60
2022-08-28T17:56:19.322Z,100048.60
2022-08-28T17:59:07.845Z,100050.20
2022-08-28T18:01:45.033Z,100052.60
2022-08-28T18:04:24.593Z,100053.20
2022-08-28T18:06:58.961Z,100060.80
2022-08-28T18:09:35.599Z,100064.00
2022-08-28T18:12:12.839Z,100065.80
2022-08-28T18:14:47.679Z,100066.80
2022-08-28T18:17:22.589Z,100074.00
2022-08-28T18:19:57.973Z,100078.40
2022-08-28T18:22:33.209Z,100083.40
2022-08-28T18:25:08.626Z,100085.20
2022-08-28T18:27:45.642Z,100085.40
2022-08-28T18:30:20.607Z,100088.40
2022-08-28T18:32:55.718Z,100092.00
2022-08-28T18:35:37.141Z,100095.40
2022-08-28T18:38:15.146Z,100097.60
2022-08-28T18:40:50.617Z,100098.60
2022-08-28T18:43:24.918Z,100103.60
2022-08-28T18:45:59.933Z,100100.20
2022-08-28T18:48:35.355Z,100109.00
2022-08-28T18:51:13.759Z,100105.60
2022-08-28T18:53:48.336Z,100106.80
2022-08-28T18:56:23.027Z,100111.80
2022-08-28T18:58:59.263Z,100110.80
2022-08-28T19:01:33.589Z,100112.60
2022-08-28T19:04:10.264Z,100112.80
2022-08-28T19:06:46.494Z,100113.00
2022-08-28T19:09:20.923Z,100117.60
2022-08-28T19:11:55.339Z,100124.80
2022-08-28T19:14:31.548Z,100121.80
2022-08-28T19:17:07.307Z,100123.80
2022-08-28T19:19:41.308Z,100125.20
2022-08-28T19:22:15.664Z,100131.80
2022-08-28T19:24:52.756Z,100130.20
2022-08-28T19:27:26.960Z,100133.40
2022-08-28T19:30:01.402Z,100133.60
2022-08-28T19:32:35.672Z,100134.00
2022-08-28T19:35:11.655Z,100137.60
2022-08-28T19:37:46.955Z,100137.60
2022-08-28T19:40:22.025Z,100139.80
2022-08-28T19:42:56.255Z,100143.80
2022-08-28T19:45:30.891Z,100143.00
2022-08-28T19:48:07.575Z,100145.40
2022-08-28T19:50:42.627Z,100147.00
2022-08-28T19:53:18.435Z,100146.40
2022-08-28T19:55:53.614Z,100149.80
2022-08-28T19:58:29.067Z,100153.80
2022-08-28T20:01:04.007Z,100147.60
2022-08-28T20:03:43.482Z,100155.80
2022-08-28T20:06:18.504Z,100154.00
2022-08-28T20:08:52.808Z,100157.40
2022-08-28T20:11:30.683Z,100158.60
2022-08-28T20:14:07.379Z,100159.40
2022-08-28T20:16:45.354Z,100158.20
2022-08-28T20:19:20.683Z,100160.80
2022-08-28T20:21:54.920Z,100161.40
2022-08-28T20:24:29.844Z,100159.00
2022-08-28T20:27:04.021Z,100155.60
2022-08-28T20:29:38.525Z,100160.40
2022-08-28T20:32:12.634Z,100165.00
2022-08-28T20:34:46.482Z,100166.00
2022-08-28T20:37:20.892Z,100169.40
2022-08-28T20:40:00.283Z,100172.00
2022-08-28T20:42:35.302Z,100178.20
2022-08-28T20:45:11.379Z,100178.40
2022-08-28T20:47:45.977Z,100184.40
2022-08-28T20:50:21.308Z,100181.60
2022-08-28T20:52:55.610Z,100187.20
2022-08-28T20:55:29.652Z,100189.60
2022-08-28T20:58:03.527Z,100188.60
2022-08-28T21:00:37.384Z,100192.80
2022-08-28T21:03:12.327Z,100191.20
2022-08-28T21:05:49.023Z,100196.00
2022-08-28T21:08:23.309Z,100195.60
2022-08-28T21:10:57.497Z,100196.20
2022-08-28T21:13:32.232Z,100200.00
2022-08-28T21:16:09.354Z,100195.80
2022-08-28T21:18:59.291Z,100193.20
2022-08-28T21:21:38.592Z,100199.60
2022-08-28T21:24:16.339Z,100201.40
2022-08-28T21:26:52.375Z,100201.20
2022-08-28T21:29:26.832Z,100204.00
2022-08-28T21:32:00.922Z,100208.20
2022-08-28T21:34:34.877Z,100208.40
2022-08-28T21:37:08.881Z,100211.20
2022-08-28T21:39:42.755Z,100218.60
2022-08-28T21:42:16.863Z,100221.60
2022-08-28T21:44:52.192Z,100226.40
2022-08-28T21:47:27.491Z,100225.60
2022-08-28T21:50:02.615Z,100228.20
2022-08-28T21:52:37.396Z,100223.00
2022-08-28T21:55:17.651Z,100229.20
2022-08-28T21:57:52.178Z,100230.80
2022-08-28T22:00:27.089Z,100231.80
2022-08-28T22:03:01.671Z,100232.00
2022-08-28T22:05:35.431Z,100236.00
2022-08-28T22:08:09.665Z,100235.60
2022-08-28T22:10:45.632Z,100238.40
2022-08-28T22:13:21.691Z,100240.80
2022-08-28T22:15:55.741Z,100238.60
2022-08-28T22:18:32.056Z,100241.00
2022-08-28T22:21:28.959Z,100238.80
2022-08-28T22:24:03.556Z,100235.40
2022-08-28T22:26:38.429Z,100242.00
2022-08-28T22:29:12.790Z,100241.80
2022-08-28T22:31:47.096Z,100241.00
2022-08-28T22:34:21.578Z,100247.60
2022-08-28T22:36:55.789Z,100252.20
2022-08-28T22:39:30.335Z,100251.40
2022-08-28T22:42:04.356Z,100254.60
2022-08-28T22:44:38.950Z,100250.40
2022-08-28T22:47:13.047Z,100259.60
2022-08-28T22:49:46.994Z,100260.60
2022-08-28T22:52:21.442Z,100258.60
2022-08-28T22:54:55.615Z,100264.20
2022-08-28T22:57:30.051Z,100261.60
2022-08-28T23:00:04.850Z,100260.80
2022-08-28T23:02:39.274Z,100258.80
2022-08-28T23:05:13.367Z,100261.40
2022-08-28T23:07:47.254Z,100257.20
2022-08-28T23:10:42.134Z,100256.60
2022-08-28T23:13:19.638Z,100262.80
2022-08-28T23:15:54.195Z,100263.40
2022-08-28T23:18:28.634Z,100263.00
2022-08-28T23:21:02.486Z,100272.80
2022-08-28T23:23:36.374Z,100272.40
2022-08-28T23:26:13.973Z,100274.20
2022-08-28T23:28:47.966Z,100269.40
2022-08-28T23:31:22.002Z,100270.00
2022-08-28T23:33:56.328Z,100273.20
2022-08-28T23:36:35.848Z,100272.20
2022-08-28T23:39:10.458Z,100275.80
2022-08-28T23:41:44.764Z,100281.60
2022-08-28T23:44:20.355Z,100280.40
2022-08-28T23:46:54.165Z,100280.80
2022-08-28T23:49:30.153Z,100277.80
2022-08-28T23:52:04.835Z,100280.40
2022-08-28T23:54:38.646Z,100278.20
2022-08-28T23:57:12.712Z,100282.20
2022-08-28T23:59:46.464Z,100280.20
